createdAt,value
2023-04-19T00:01:08.841Z,8.33
2023-04-19T00:03:36.341Z,7.37
2023-04-19T00:06:04.379Z,7.67
2023-04-19T00:08:31.597Z,6.30
2023-04-19T00:10:58.871Z,7.13
2023-04-19T00:13:26.138Z,6.50
2023-04-19T00:15:53.365Z,6.60
2023-04-19T00:18:20.582Z,6.07
2023-04-19T00:20:48.832Z,6.20
2023-04-19T00:23:16.223Z,6.27
2023-04-19T00:25:43.477Z,5.47
2023-04-19T00:28:10.994Z,5.90
2023-04-19T00:30:38.258Z,5.53
2023-04-19T00:33:05.760Z,5.60
2023-04-19T00:35:33.108Z,4.90
2023-04-19T00:38:00.888Z,5.30
2023-04-19T00:40:28.350Z,5.20
2023-04-19T00:42:55.616Z,5.20
2023-04-19T00:45:22.873Z,5.43
2023-04-19T00:47:52.183Z,5.00
2023-04-19T00:50:19.845Z,5.53
2023-04-19T00:52:47.282Z,5.17
2023-04-19T00:55:14.896Z,5.33
2023-04-19T00:57:43.468Z,5.20
2023-04-19T01:00:10.968Z,5.30
2023-04-19T01:02:38.321Z,4.63
2023-04-19T01:05:05.855Z,5.13
2023-04-19T01:07:35.067Z,4.60
2023-04-19T01:10:02.696Z,4.93
2023-04-19T01:12:29.932Z,4.30
2023-04-19T01:14:57.270Z,4.33
2023-04-19T01:17:24.523Z,4.63
2023-04-19T01:19:59.341Z,4.97
2023-04-19T01:22:26.549Z,5.00
2023-04-19T01:24:53.778Z,4.67
2023-04-19T01:27:21.524Z,4.50
2023-04-19T01:29:48.788Z,5.00
2023-04-19T01:32:17.442Z,5.10
2023-04-19T01:34:44.807Z,5.13
2023-04-19T01:37:12.137Z,4.90
2023-04-19T01:39:41.624Z,4.60
2023-04-19T01:42:09.092Z,4.60
2023-04-19T01:44:37.363Z,4.20
2023-04-19T01:47:05.785Z,4.73
2023-04-19T01:49:33.513Z,4.70
2023-04-19T01:52:00.835Z,4.97
2023-04-19T01:54:28.089Z,4.90
2023-04-19T01:56:55.375Z,5.10
2023-04-19T01:59:22.696Z,4.70
2023-04-19T02:01:49.991Z,4.23
2023-04-19T02:04:19.739Z,4.97
2023-04-19T02:06:46.990Z,4.20
2023-04-19T02:09:14.201Z,4.90
2023-04-19T02:11:42.890Z,4.60
2023-04-19T02:14:10.140Z,4.33
2023-04-19T02:16:37.378Z,5.00
2023-04-19T02:19:04.858Z,4.50
2023-04-19T02:21:33.658Z,4.57
2023-04-19T02:24:01.177Z,4.67
2023-04-19T02:26:28.518Z,4.73
2023-04-19T02:28:55.805Z,4.73
2023-04-19T02:31:23.363Z,4.80
2023-04-19T02:33:50.733Z,4.80
2023-04-19T02:36:17.918Z,4.53
2023-04-19T02:38:45.226Z,4.97
2023-04-19T02:41:13.705Z,5.03
2023-04-19T02:43:40.930Z,5.20
2023-04-19T02:46:08.269Z,4.83
2023-04-19T02:48:35.677Z,5.40
2023-04-19T02:51:02.866Z,5.10
2023-04-19T02:53:30.317Z,5.40
2023-04-19T02:55:57.792Z,5.20
2023-04-19T02:58:25.565Z,5.10
2023-04-19T03:01:03.797Z,5.43
2023-04-19T03:03:31.285Z,4.77
2023-04-19T03:05:58.621Z,5.10
2023-04-19T03:08:26.262Z,5.70
2023-04-19T03:10:53.741Z,4.67
2023-04-19T03:13:21.759Z,5.63
2023-04-19T03:15:49.334Z,5.57
2023-04-19T03:18:18.828Z,5.80
2023-04-19T03:20:46.888Z,5.57
2023-04-19T03:23:14.371Z,5.70
2023-04-19T03:25:43.512Z,5.80
2023-04-19T03:28:23.230Z,5.93
2023-04-19T03:31:14.113Z,6.70
2023-04-19T03:33:41.890Z,6.67
2023-04-19T03:36:11.086Z,7.23
2023-04-19T03:38:40.993Z,6.57
2023-04-19T03:41:18.896Z,6.53
2023-04-19T03:43:46.674Z,7.10
2023-04-19T03:46:13.988Z,7.00
2023-04-19T03:48:41.750Z,6.77
2023-04-19T03:51:09.158Z,6.97
2023-04-19T03:53:37.299Z,6.87
2023-04-19T03:56:04.640Z,6.63
2023-04-19T03:58:33.594Z,6.30
2023-04-19T04:01:08.376Z,7.73
2023-04-19T04:03:36.213Z,7.77
2023-04-19T04:06:05.020Z,7.60
2023-04-19T04:08:32.355Z,7.80
2023-04-19T04:10:59.661Z,7.60
2023-04-19T04:13:27.172Z,7.33
2023-04-19T04:16:06.480Z,7.40
2023-04-19T04:18:34.602Z,7.43
2023-04-19T04:21:04.906Z,7.00
2023-04-19T04:23:34.357Z,6.20
2023-04-19T04:26:05.281Z,7.00
2023-04-19T04:28:44.671Z,6.97
2023-04-19T04:31:13.165Z,6.23
2023-04-19T04:33:41.829Z,6.33
2023-04-19T04:36:12.047Z,6.10
2023-04-19T04:38:40.888Z,6.03
2023-04-19T04:41:08.762Z,5.57
2023-04-19T04:43:36.223Z,5.10
2023-04-19T04:46:04.178Z,5.23
2023-04-19T04:48:36.435Z,4.77
2023-04-19T04:51:05.683Z,4.90
2023-04-19T04:53:34.371Z,4.77
2023-04-19T04:56:04.696Z,6.63
2023-04-19T04:58:32.317Z,5.13
2023-04-19T05:01:05.550Z,5.93
2023-04-19T05:03:37.683Z,4.53
2023-04-19T05:06:08.660Z,4.40
2023-04-19T05:08:36.746Z,3.93
2023-04-19T05:11:15.172Z,3.43
2023-04-19T05:13:43.188Z,4.30
2023-04-19T05:16:10.551Z,3.97
2023-04-19T05:18:39.604Z,3.97
2023-04-19T05:21:10.396Z,4.13
2023-04-19T05:23:39.280Z,3.90
2023-04-19T05:26:06.812Z,4.13
2023-04-19T05:28:34.156Z,5.07
2023-04-19T05:31:10.800Z,5.57
2023-04-19T05:33:51.042Z,4.10
2023-04-19T05:36:18.288Z,3.50
2023-04-19T05:38:46.529Z,3.00
2023-04-19T05:41:14.217Z,3.10
2023-04-19T05:43:41.634Z,3.20
2023-04-19T05:46:09.462Z,3.27
2023-04-19T05:48:37.059Z,3.10
2023-04-19T05:51:42.069Z,3.00
2023-04-19T05:54:17.187Z,2.60
2023-04-19T05:56:47.445Z,2.73
2023-04-19T05:59:15.434Z,2.50
2023-04-19T06:01:43.096Z,2.60
2023-04-19T06:04:10.551Z,2.57
2023-04-19T06:06:38.238Z,2.73
2023-04-19T06:09:07.139Z,2.60
2023-04-19T06:11:42.879Z,2.20
2023-04-19T06:14:17.578Z,2.40
2023-04-19T06:16:45.348Z,2.40
2023-04-19T06:19:12.713Z,2.07
2023-04-19T06:21:40.188Z,2.07
2023-04-19T06:24:07.976Z,2.20
2023-04-19T06:26:35.392Z,2.30
2023-04-19T06:29:02.608Z,2.40
2023-04-19T06:31:29.997Z,2.20
2023-04-19T06:33:57.340Z,2.13
2023-04-19T06:36:24.773Z,1.93
2023-04-19T06:38:52.822Z,1.90
2023-04-19T06:41:20.692Z,1.80
2023-04-19T06:43:47.996Z,2.10
2023-04-19T06:46:15.903Z,2.53
2023-04-19T06:48:43.429Z,2.30
2023-04-19T06:51:10.666Z,2.37
2023-04-19T06:53:38.358Z,2.33
2023-04-19T06:56:05.815Z,1.90
2023-04-19T06:58:34.852Z,2.00
2023-04-19T07:01:04.369Z,2.30
2023-04-19T07:03:31.992Z,2.50
2023-04-19T07:05:59.648Z,2.07
2023-04-19T07:08:34.778Z,2.03
2023-04-19T07:11:02.826Z,2.20
2023-04-19T07:13:30.602Z,2.10
2023-04-19T07:15:58.019Z,2.07
2023-04-19T07:18:25.206Z,1.90
2023-04-19T07:20:52.699Z,1.87
2023-04-19T07:23:20.038Z,2.13
2023-04-19T07:25:47.231Z,2.00
2023-04-19T07:28:16.293Z,2.20
2023-04-19T07:30:46.129Z,2.03
2023-04-19T07:33:32.352Z,2.20
2023-04-19T07:36:00.576Z,2.20
2023-04-19T07:38:46.876Z,2.07
2023-04-19T07:41:14.187Z,1.80
2023-04-19T07:43:41.549Z,1.93
2023-04-19T07:46:11.819Z,2.33
2023-04-19T07:48:39.159Z,2.47
2023-04-19T07:51:11.123Z,1.87
2023-04-19T07:53:39.551Z,2.27
2023-04-19T07:56:07.930Z,2.40
2023-04-19T07:58:36.211Z,2.03
2023-04-19T08:01:03.976Z,2.17
2023-04-19T08:03:32.255Z,1.80
2023-04-19T08:06:02.379Z,1.80
2023-04-19T08:08:29.785Z,2.20
2023-04-19T08:10:57.048Z,2.03
2023-04-19T08:13:24.356Z,2.27
2023-04-19T08:16:27.077Z,2.47
2023-04-19T08:18:39.381Z,1.90
2023-04-19T08:21:06.609Z,2.13
2023-04-19T08:23:41.543Z,1.93
2023-04-19T08:26:15.482Z,1.90
2023-04-19T08:28:43.348Z,2.40
2023-04-19T08:31:10.707Z,2.27
2023-04-19T08:33:38.136Z,2.30
2023-04-19T08:36:05.512Z,2.07
2023-04-19T08:38:32.763Z,2.37
2023-04-19T08:41:00.013Z,2.13
2023-04-19T08:43:33.508Z,2.40
2023-04-19T08:46:00.957Z,2.23
2023-04-19T08:48:28.821Z,2.30
2023-04-19T08:51:04.938Z,2.00
2023-04-19T08:53:35.557Z,2.37
2023-04-19T08:56:15.270Z,2.20
2023-04-19T09:01:31.111Z,2.10
2023-04-19T09:04:17.175Z,2.40
2023-04-19T09:06:49.031Z,1.97
2023-04-19T09:11:58.312Z,2.43
2023-04-19T09:14:26.465Z,2.20
2023-04-19T09:16:53.890Z,1.97
2023-04-19T09:19:24.649Z,2.30
2023-04-19T09:21:54.816Z,2.90
2023-04-19T09:27:12.419Z,2.17
2023-04-19T09:29:42.593Z,2.70
2023-04-19T09:32:09.828Z,2.10
2023-04-19T09:34:43.066Z,2.67
2023-04-19T09:38:04.888Z,2.27
2023-04-19T09:40:34.011Z,2.40
2023-04-19T09:45:51.651Z,2.63
2023-04-19T09:48:19.137Z,2.50
2023-04-19T09:50:57.463Z,2.37
2023-04-19T09:53:30.511Z,2.77
2023-04-19T09:56:02.286Z,2.23
2023-04-19T10:01:11.172Z,2.47
2023-04-19T10:03:42.667Z,2.37
2023-04-19T10:06:14.707Z,2.47
2023-04-19T10:08:58.351Z,2.57
2023-04-19T10:11:27.662Z,2.60
2023-04-19T10:13:57.186Z,2.40
2023-04-19T10:16:24.923Z,2.40
2023-04-19T10:18:53.205Z,2.57
2023-04-19T10:21:23.494Z,2.10
2023-04-19T10:23:54.733Z,2.70
2023-04-19T10:26:22.325Z,2.20
2023-04-19T10:29:08.140Z,2.40
2023-04-19T10:31:35.470Z,1.87
2023-04-19T10:34:05.187Z,2.20
2023-04-19T10:36:33.752Z,2.70
2023-04-19T10:39:01.037Z,2.50
2023-04-19T10:41:48.512Z,2.20
2023-04-19T10:44:15.759Z,2.27
2023-04-19T10:46:43.147Z,2.63
2023-04-19T10:49:13.629Z,2.63
2023-04-19T10:51:44.283Z,2.50
2023-04-19T10:54:31.937Z,2.40
2023-04-19T10:57:10.238Z,2.63
2023-04-19T10:59:42.921Z,2.47
2023-04-19T11:02:28.134Z,2.70
2023-04-19T11:04:56.154Z,2.50
2023-04-19T11:07:25.580Z,2.47
2023-04-19T11:09:53.164Z,2.17
2023-04-19T11:12:21.634Z,2.57
2023-04-19T11:14:50.001Z,2.13
2023-04-19T11:17:28.037Z,2.77
2023-04-19T11:19:55.748Z,2.50
2023-04-19T11:22:33.151Z,2.47
2023-04-19T11:25:10.567Z,2.30
2023-04-19T11:27:38.289Z,2.13
2023-04-19T11:30:06.874Z,2.40
2023-04-19T11:32:34.671Z,2.50
2023-04-19T11:35:06.700Z,2.30
2023-04-19T11:37:36.377Z,2.23
2023-04-19T11:40:05.581Z,2.20
2023-04-19T11:42:33.521Z,2.77
2023-04-19T11:45:00.870Z,2.10
2023-04-19T11:47:28.395Z,2.57
2023-04-19T11:49:58.936Z,2.20
2023-04-19T11:52:27.412Z,2.10
2023-04-19T11:54:55.294Z,2.40
2023-04-19T11:57:32.042Z,2.37
2023-04-19T12:00:12.883Z,2.13
2023-04-19T12:02:41.762Z,2.00
2023-04-19T12:05:13.259Z,2.47
2023-04-19T12:08:00.923Z,2.00
2023-04-19T12:10:28.333Z,2.87
2023-04-19T12:12:55.708Z,2.23
2023-04-19T12:15:25.247Z,2.20
2023-04-19T12:18:02.037Z,2.30
2023-04-19T12:20:34.272Z,2.13
2023-04-19T12:23:05.068Z,2.37
2023-04-19T12:25:33.378Z,2.33
2023-04-19T12:28:01.806Z,2.50
2023-04-19T12:30:29.053Z,2.43
2023-04-19T12:32:56.530Z,2.50
2023-04-19T12:35:25.392Z,2.60
2023-04-19T12:37:53.366Z,2.53
2023-04-19T12:40:21.173Z,2.33
2023-04-19T12:42:49.279Z,2.20
2023-04-19T12:45:16.618Z,2.20
2023-04-19T12:47:44.587Z,2.47
2023-04-19T12:50:13.094Z,2.07
2023-04-19T12:52:40.653Z,2.60
2023-04-19T12:55:08.056Z,2.60
2023-04-19T12:57:35.322Z,2.70
2023-04-19T13:00:02.881Z,2.70
2023-04-19T13:02:30.804Z,2.70
2023-04-19T13:04:58.102Z,2.43
2023-04-19T13:07:26.298Z,2.70
2023-04-19T13:09:54.357Z,2.73
2023-04-19T13:12:23.988Z,2.47
2023-04-19T13:14:51.477Z,2.90
2023-04-19T13:17:22.120Z,2.93
2023-04-19T13:19:49.495Z,2.90
2023-04-19T13:22:16.751Z,2.50
2023-04-19T13:24:43.944Z,3.00
2023-04-19T13:27:11.528Z,2.77
2023-04-19T13:29:38.826Z,2.67
2023-04-19T13:32:07.647Z,2.50
2023-04-19T13:34:35.237Z,2.80
2023-04-19T13:37:02.457Z,2.93
2023-04-19T13:39:29.728Z,2.63
2023-04-19T13:41:57.017Z,2.37
2023-04-19T13:44:25.255Z,2.60
2023-04-19T13:46:53.019Z,2.60
2023-04-19T13:49:20.273Z,2.60
2023-04-19T13:51:50.744Z,3.10
2023-04-19T13:54:19.630Z,2.90
2023-04-19T13:56:49.853Z,2.83
2023-04-19T13:59:18.711Z,2.67
2023-04-19T14:01:46.250Z,2.73
2023-04-19T14:04:13.919Z,2.63
2023-04-19T14:06:41.325Z,2.60
2023-04-19T14:09:08.539Z,3.00
2023-04-19T14:11:37.789Z,3.00
2023-04-19T14:14:05.139Z,2.67
2023-04-19T14:16:32.468Z,2.97
2023-04-19T14:18:59.814Z,2.90
2023-04-19T14:21:27.652Z,2.10
2023-04-19T14:23:54.911Z,2.73
2023-04-19T14:26:22.246Z,3.10
2023-04-19T14:28:49.509Z,2.90
2023-04-19T14:31:16.911Z,2.87
2023-04-19T14:33:44.152Z,2.80
2023-04-19T14:36:11.473Z,2.57
2023-04-19T14:38:38.731Z,2.73
2023-04-19T14:41:06.063Z,2.70
2023-04-19T14:43:33.585Z,3.10
2023-04-19T14:46:00.953Z,2.70
2023-04-19T14:48:28.299Z,2.57
2023-04-19T14:50:56.246Z,2.67
2023-04-19T14:53:23.762Z,2.80
2023-04-19T14:55:51.155Z,2.60
2023-04-19T14:58:18.373Z,2.53
2023-04-19T15:00:45.855Z,2.40
2023-04-19T15:03:13.494Z,2.47
2023-04-19T15:05:41.177Z,2.43
2023-04-19T15:08:14.793Z,2.93
2023-04-19T15:10:54.331Z,2.70
2023-04-19T15:13:21.623Z,2.90
2023-04-19T15:15:48.944Z,3.13
2023-04-19T15:18:16.314Z,3.43
2023-04-19T15:20:43.688Z,3.63
2023-04-19T15:23:10.934Z,3.33
2023-04-19T15:25:38.271Z,3.20
2023-04-19T15:28:05.599Z,2.77
2023-04-19T15:30:32.856Z,2.90
2023-04-19T15:33:00.074Z,3.83
2023-04-19T15:35:27.360Z,4.23
2023-04-19T15:37:54.557Z,3.40
2023-04-19T15:40:23.069Z,3.47
2023-04-19T15:42:50.278Z,3.30
2023-04-19T15:45:17.580Z,3.43
2023-04-19T15:47:44.807Z,3.20
2023-04-19T15:50:12.066Z,3.27
2023-04-19T15:52:41.156Z,3.00
2023-04-19T15:55:08.630Z,3.33
2023-04-19T15:57:36.122Z,3.50
2023-04-19T16:00:03.487Z,2.70
2023-04-19T16:02:50.713Z,3.00
2023-04-19T16:05:18.039Z,2.80
2023-04-19T16:07:45.564Z,3.20
2023-04-19T16:10:13.764Z,3.00
2023-04-19T16:12:41.321Z,3.60
2023-04-19T16:15:09.217Z,3.47
2023-04-19T16:17:36.565Z,3.27
2023-04-19T16:20:04.604Z,3.30
2023-04-19T16:22:32.965Z,3.40
2023-04-19T16:25:00.289Z,3.23
2023-04-19T16:27:28.277Z,3.30
2023-04-19T16:29:55.541Z,3.17
2023-04-19T16:32:22.938Z,2.90
2023-04-19T16:34:50.532Z,2.97
2023-04-19T16:37:18.271Z,2.70
2023-04-19T16:39:45.569Z,2.70
2023-04-19T16:42:12.777Z,2.70
2023-04-19T16:44:39.966Z,3.10
2023-04-19T16:47:07.840Z,3.20
2023-04-19T16:49:36.628Z,3.17
2023-04-19T16:52:03.855Z,3.43
2023-04-19T16:54:31.662Z,2.90
2023-04-19T16:57:03.154Z,3.33
2023-04-19T16:59:33.521Z,3.03
2023-04-19T17:02:02.597Z,3.27
2023-04-19T17:04:32.609Z,3.20
2023-04-19T17:07:10.862Z,3.40
2023-04-19T17:09:40.204Z,3.43
2023-04-19T17:12:08.987Z,3.13
2023-04-19T17:14:38.480Z,3.40
2023-04-19T17:17:06.929Z,3.57
2023-04-19T17:19:36.167Z,3.30
2023-04-19T17:22:05.437Z,3.97
2023-04-19T17:24:36.101Z,3.33
2023-04-19T17:27:04.565Z,3.20
2023-04-19T17:29:32.596Z,3.20
2023-04-19T17:32:03.212Z,3.90
2023-04-19T17:34:30.573Z,4.40
2023-04-19T17:36:57.828Z,6.60
2023-04-19T17:39:27.740Z,4.10
2023-04-19T17:41:55.357Z,3.30
2023-04-19T17:44:25.123Z,3.17
2023-04-19T17:46:52.596Z,3.47
2023-04-19T17:49:22.389Z,3.77
2023-04-19T17:51:49.605Z,3.67
2023-04-19T17:54:17.325Z,3.90
2023-04-19T17:57:05.732Z,3.30
2023-04-19T17:59:37.087Z,3.13
2023-04-19T18:02:04.412Z,3.50
2023-04-19T18:04:31.819Z,3.60
2023-04-19T18:07:00.246Z,3.70
2023-04-19T18:09:31.600Z,3.67
2023-04-19T18:12:03.597Z,4.10
2023-04-19T18:14:30.838Z,3.70
2023-04-19T18:16:58.113Z,3.37
2023-04-19T18:19:31.423Z,3.47
2023-04-19T18:21:58.692Z,3.27
2023-04-19T18:24:25.913Z,3.27
2023-04-19T18:26:53.272Z,3.40
2023-04-19T18:29:23.023Z,3.73
2023-04-19T18:31:50.313Z,3.33
2023-04-19T18:34:17.543Z,3.43
2023-04-19T18:36:44.824Z,3.70
2023-04-19T18:39:13.293Z,3.60
2023-04-19T18:41:40.536Z,3.67
2023-04-19T18:44:35.494Z,3.27
2023-04-19T18:46:55.221Z,3.30
2023-04-19T18:49:22.986Z,3.63
2023-04-19T18:51:51.017Z,4.00
2023-04-19T18:54:19.607Z,3.50
2023-04-19T18:59:17.678Z,3.63
2023-04-19T19:01:45.761Z,3.57
2023-04-19T19:06:51.631Z,3.57
2023-04-19T19:09:22.518Z,3.50
2023-04-19T19:11:56.117Z,3.33
2023-04-19T19:14:24.223Z,3.60
2023-04-19T19:16:52.916Z,3.87
2023-04-19T19:19:22.450Z,3.50
2023-04-19T19:21:50.192Z,3.37
2023-04-19T19:24:17.462Z,3.87
2023-04-19T19:26:44.711Z,3.67
2023-04-19T19:29:16.024Z,3.20
2023-04-19T19:31:43.836Z,3.97
2023-04-19T19:34:24.085Z,3.70
2023-04-19T19:36:52.872Z,3.97
2023-04-19T19:39:20.142Z,4.17
2023-04-19T19:44:17.626Z,3.93
2023-04-19T19:46:44.966Z,3.87
2023-04-19T19:49:13.169Z,3.60
2023-04-19T19:51:59.841Z,3.80
2023-04-19T19:54:27.559Z,3.60
2023-04-19T19:57:21.682Z,4.10
2023-04-19T19:59:49.596Z,3.10
2023-04-19T20:02:20.290Z,3.80
2023-04-19T20:04:48.027Z,3.90
2023-04-19T20:09:45.964Z,3.90
2023-04-19T20:12:13.678Z,3.23
2023-04-19T20:14:41.310Z,3.30
2023-04-19T20:17:08.597Z,3.27
2023-04-19T20:19:36.039Z,3.63
2023-04-19T20:22:03.494Z,3.10
2023-04-19T20:24:31.882Z,4.77
2023-04-19T20:26:59.173Z,5.37
2023-04-19T20:29:26.511Z,3.57
2023-04-19T20:31:53.881Z,3.30
2023-04-19T20:34:21.377Z,4.00
2023-04-19T20:36:48.694Z,3.37
2023-04-19T20:39:16.052Z,3.77
2023-04-19T20:41:47.746Z,3.70
2023-04-19T20:44:17.663Z,3.93
2023-04-19T20:46:45.028Z,3.43
2023-04-19T20:49:12.321Z,3.83
2023-04-19T20:51:39.499Z,3.83
2023-04-19T20:54:06.702Z,3.80
2023-04-19T20:56:33.925Z,3.60
2023-04-19T20:59:01.309Z,3.90
